sensor_id;sensor_type;location;lat;lon;timestamp;pressure;altitude;pressure_sealevel;temperature;humidity
51452;BME280;37521;52.020;-1.740;2023-07-29T00:00:07;98819.34;;;13.36;100.00
51452;BME280;37521;52.020;-1.740;2023-07-29T00:02:42;98827.09;;;13.40;100.00
51452;BME280;37521;52.020;-1.740;2023-07-29T00:05:11;98814.53;;;13.42;100.00
51452;BME280;37521;52.020;-1.740;2023-07-29T00:07:41;98819.00;;;13.41;100.00
51452;BME280;37521;52.020;-1.740;2023-07-29T00:10:09;98817.19;;;13.42;100.00
51452;BME280;37521;52.020;-1.740;2023-07-29T00:12:38;98824.19;;;13.43;100.00
51452;BME280;37521;52.020;-1.740;2023-07-29T00:15:09;98825.03;;;13.43;100.00
51452;BME280;37521;52.020;-1.740;2023-07-29T00:17:38;98827.44;;;13.46;100.00
51452;BME280;37521;52.020;-1.740;2023-07-29T00:20:10;98823.84;;;13.47;100.00
51452;BME280;37521;52.020;-1.740;2023-07-29T00:22:39;98816.72;;;13.48;100.00
51452;BME280;37521;52.020;-1.740;2023-07-29T00:25:08;98820.22;;;13.48;100.00
51452;BME280;37521;52.020;-1.740;2023-07-29T00:27:37;98817.56;;;13.48;100.00
51452;BME280;37521;52.020;-1.740;2023-07-29T00:30:07;98815.75;;;13.49;100.00
51452;BME280;37521;52.020;-1.740;2023-07-29T00:32:37;98812.97;;;13.50;100.00
51452;BME280;37521;52.020;-1.740;2023-07-29T00:35:09;98811.28;;;13.49;100.00
51452;BME280;37521;52.020;-1.740;2023-07-29T00:37:39;98818.41;;;13.49;100.00
51452;BME280;37521;52.020;-1.740;2023-07-29T00:40:15;98824.69;;;13.48;100.00
51452;BME280;37521;52.020;-1.740;2023-07-29T00:42:47;98808.19;;;13.44;100.00
51452;BME280;37521;52.020;-1.740;2023-07-29T00:45:18;98809.25;;;13.42;100.00
51452;BME280;37521;52.020;-1.740;2023-07-29T00:47:48;98808.41;;;13.41;100.00
51452;BME280;37521;52.020;-1.740;2023-07-29T00:50:21;98819.00;;;13.41;100.00
51452;BME280;37521;52.020;-1.740;2023-07-29T00:52:50;98806.47;;;13.43;100.00
51452;BME280;37521;52.020;-1.740;2023-07-29T00:55:18;98803.09;;;13.41;100.00
51452;BME280;37521;52.020;-1.740;2023-07-29T00:57:47;98803.09;;;13.41;100.00
51452;BME280;37521;52.020;-1.740;2023-07-29T01:00:18;98803.09;;;13.41;100.00
51452;BME280;37521;52.020;-1.740;2023-07-29T01:02:48;98791.66;;;13.41;100.00
51452;BME280;37521;52.020;-1.740;2023-07-29T01:05:21;98791.03;;;13.37;100.00
51452;BME280;37521;52.020;-1.740;2023-07-29T01:07:54;98788.38;;;13.37;100.00
51452;BME280;37521;52.020;-1.740;2023-07-29T01:10:31;98796.56;;;13.34;100.00
51452;BME280;37521;52.020;-1.740;2023-07-29T01:13:09;98798.72;;;13.29;100.00
51452;BME280;37521;52.020;-1.740;2023-07-29T01:15:43;98802.34;;;13.28;100.00
51452;BME280;37521;52.020;-1.740;2023-07-29T01:18:20;98791.75;;;13.28;100.00
51452;BME280;37521;52.020;-1.740;2023-07-29T01:20:54;98782.81;;;13.29;100.00
51452;BME280;37521;52.020;-1.740;2023-07-29T01:23:28;98780.91;;;13.31;100.00
51452;BME280;37521;52.020;-1.740;2023-07-29T01:25:58;98780.28;;;13.27;100.00
51452;BME280;37521;52.020;-1.740;2023-07-29T01:28:28;98779.81;;;13.22;100.00
51452;BME280;37521;52.020;-1.740;2023-07-29T01:31:02;98785.44;;;13.18;100.00
51452;BME280;37521;52.020;-1.740;2023-07-29T01:33:39;98792.53;;;13.17;100.00
51452;BME280;37521;52.020;-1.740;2023-07-29T01:36:13;98787.34;;;13.16;100.00
51452;BME280;37521;52.020;-1.740;2023-07-29T01:38:46;98780.34;;;13.15;100.00
51452;BME280;37521;52.020;-1.740;2023-07-29T01:41:17;98773.13;;;13.17;100.00
51452;BME280;37521;52.020;-1.740;2023-07-29T01:43:46;98785.66;;;13.15;100.00
51452;BME280;37521;52.020;-1.740;2023-07-29T01:46:15;98783.00;;;13.15;100.00
51452;BME280;37521;52.020;-1.740;2023-07-29T01:48:44;98783.00;;;13.15;100.00
51452;BME280;37521;52.020;-1.740;2023-07-29T01:51:13;98782.28;;;13.13;100.00
51452;BME280;37521;52.020;-1.740;2023-07-29T01:53:42;98785.91;;;13.12;100.00
51452;BME280;37521;52.020;-1.740;2023-07-29T01:56:14;98793.09;;;13.09;100.00
51452;BME280;37521;52.020;-1.740;2023-07-29T01:58:51;98779.97;;;13.08;100.00
51452;BME280;37521;52.020;-1.740;2023-07-29T02:01:21;98792.38;;;13.07;100.00
51452;BME280;37521;52.020;-1.740;2023-07-29T02:03:52;98789.75;;;13.07;100.00
51452;BME280;37521;52.020;-1.740;2023-07-29T02:06:23;98784.44;;;13.07;100.00
51452;BME280;37521;52.020;-1.740;2023-07-29T02:08:52;98776.50;;;13.07;100.00
51452;BME280;37521;52.020;-1.740;2023-07-29T02:11:23;98778.28;;;13.07;100.00
51452;BME280;37521;52.020;-1.740;2023-07-29T02:13:55;98766.84;;;13.06;100.00
51452;BME280;37521;52.020;-1.740;2023-07-29T02:16:23;98767.06;;;13.03;100.00
51452;BME280;37521;52.020;-1.740;2023-07-29T02:18:52;98782.38;;;13.00;100.00
51452;BME280;37521;52.020;-1.740;2023-07-29T02:21:23;98771.06;;;12.98;100.00
51452;BME280;37521;52.020;-1.740;2023-07-29T02:23:51;98769.25;;;12.98;100.00
51452;BME280;37521;52.020;-1.740;2023-07-29T02:26:23;98781.75;;;12.96;100.00
51452;BME280;37521;52.020;-1.740;2023-07-29T02:28:51;98777.53;;;12.94;100.00
51452;BME280;37521;52.020;-1.740;2023-07-29T02:31:23;98771.41;;;12.93;100.00
51452;BME280;37521;52.020;-1.740;2023-07-29T02:33:52;98765.38;;;12.91;100.00
51452;BME280;37521;52.020;-1.740;2023-07-29T02:36:21;98769.94;;;12.89;100.00
51452;BME280;37521;52.020;-1.740;2023-07-29T02:38:49;98773.53;;;12.88;100.00
51452;BME280;37521;52.020;-1.740;2023-07-29T02:41:18;98775.34;;;12.88;100.00
51452;BME280;37521;52.020;-1.740;2023-07-29T02:43:49;98772.94;;;12.85;100.00
51452;BME280;37521;52.020;-1.740;2023-07-29T02:46:18;98777.41;;;12.84;100.00
51452;BME280;37521;52.020;-1.740;2023-07-29T02:48:48;98773.16;;;12.81;100.00
51452;BME280;37521;52.020;-1.740;2023-07-29T02:51:16;98767.97;;;12.80;100.00
51452;BME280;37521;52.020;-1.740;2023-07-29T02:53:46;98767.25;;;12.78;100.00
51452;BME280;37521;52.020;-1.740;2023-07-29T02:56:15;98763.88;;;12.76;100.00
51452;BME280;37521;52.020;-1.740;2023-07-29T02:58:44;98764.94;;;12.73;100.00
51452;BME280;37521;52.020;-1.740;2023-07-29T03:01:14;98764.09;;;12.73;100.00
51452;BME280;37521;52.020;-1.740;2023-07-29T03:03:43;98761.59;;;12.71;100.00
51452;BME280;37521;52.020;-1.740;2023-07-29T03:06:14;98764.09;;;12.73;100.00
51452;BME280;37521;52.020;-1.740;2023-07-29T03:08:43;98759.03;;;12.70;100.00
51452;BME280;37521;52.020;-1.740;2023-07-29T03:11:14;98762.63;;;12.69;100.00
51452;BME280;37521;52.020;-1.740;2023-07-29T03:13:44;98748.69;;;12.67;100.00
51452;BME280;37521;52.020;-1.740;2023-07-29T03:16:16;98754.09;;;12.65;100.00
51452;BME280;37521;52.020;-1.740;2023-07-29T03:18:51;98755.16;;;12.63;100.00
51452;BME280;37521;52.020;-1.740;2023-07-29T03:21:19;98757.06;;;12.61;100.00
51452;BME280;37521;52.020;-1.740;2023-07-29T03:23:48;98752.75;;;12.60;100.00
51452;BME280;37521;52.020;-1.740;2023-07-29T03:26:17;98754.44;;;12.61;100.00
51452;BME280;37521;52.020;-1.740;2023-07-29T03:28:46;98751.91;;;12.59;100.00
51452;BME280;37521;52.020;-1.740;2023-07-29T03:31:16;98748.28;;;12.60;100.00
51452;BME280;37521;52.020;-1.740;2023-07-29T03:33:45;98749.97;;;12.61;100.00
51452;BME280;37521;52.020;-1.740;2023-07-29T03:36:15;98752.75;;;12.60;100.00
51452;BME280;37521;52.020;-1.740;2023-07-29T03:38:46;98754.44;;;12.61;100.00
51452;BME280;37521;52.020;-1.740;2023-07-29T03:41:15;98759.72;;;12.61;100.00
51452;BME280;37521;52.020;-1.740;2023-07-29T03:43:43;98752.75;;;12.60;100.00
51452;BME280;37521;52.020;-1.740;2023-07-29T03:46:12;98751.78;;;12.61;100.00
51452;BME280;37521;52.020;-1.740;2023-07-29T03:48:42;98761.41;;;12.62;100.00
51452;BME280;37521;52.020;-1.740;2023-07-29T03:51:12;98759.72;;;12.61;100.00
51452;BME280;37521;52.020;-1.740;2023-07-29T03:53:40;98759.72;;;12.61;100.00
51452;BME280;37521;52.020;-1.740;2023-07-29T03:56:09;98751.78;;;12.61;100.00
51452;BME280;37521;52.020;-1.740;2023-07-29T03:58:39;98758.03;;;12.60;100.00
51452;BME280;37521;52.020;-1.740;2023-07-29T04:01:07;98762.38;;;12.61;100.00
51452;BME280;37521;52.020;-1.740;2023-07-29T04:03:37;98757.06;;;12.61;100.00
51452;BME280;37521;52.020;-1.740;2023-07-29T04:06:07;98752.75;;;12.60;100.00
51452;BME280;37521;52.020;-1.740;2023-07-29T04:08:36;98756.09;;;12.62;100.00
51452;BME280;37521;52.020;-1.740;2023-07-29T04:11:05;98756.34;;;12.59;100.00
51452;BME280;37521;52.020;-1.740;2023-07-29T04:13:35;98747.91;;;12.53;100.00
51452;BME280;37521;52.020;-1.740;2023-07-29T04:16:05;98749.81;;;12.51;100.00
51452;BME280;37521;52.020;-1.740;2023-07-29T04:18:35;98756.09;;;12.50;100.00
51452;BME280;37521;52.020;-1.740;2023-07-29T04:21:05;98764.25;;;12.47;100.00
51452;BME280;37521;52.020;-1.740;2023-07-29T04:23:37;98759.78;;;12.48;100.00
51452;BME280;37521;52.020;-1.740;2023-07-29T04:26:07;98769.53;;;12.47;100.00
51452;BME280;37521;52.020;-1.740;2023-07-29T04:28:35;98762.44;;;12.48;100.00
51452;BME280;37521;52.020;-1.740;2023-07-29T04:31:04;98758.72;;;12.50;100.00
51452;BME280;37521;52.020;-1.740;2023-07-29T04:33:33;98762.31;;;12.49;100.00
51452;BME280;37521;52.020;-1.740;2023-07-29T04:36:04;98764.13;;;12.49;100.00
51452;BME280;37521;52.020;-1.740;2023-07-29T04:38:33;98762.31;;;12.49;100.00
51452;BME280;37521;52.020;-1.740;2023-07-29T04:41:05;98766.56;;;12.52;100.00
51452;BME280;37521;52.020;-1.740;2023-07-29T04:43:35;98760.28;;;12.53;100.00
51452;BME280;37521;52.020;-1.740;2023-07-29T04:46:07;98761.84;;;12.55;100.00
51452;BME280;37521;52.020;-1.740;2023-07-29T04:48:37;98755.84;;;12.53;100.00
51452;BME280;37521;52.020;-1.740;2023-07-29T04:51:06;98755.13;;;12.51;100.00
51452;BME280;37521;52.020;-1.740;2023-07-29T04:53:34;98761.25;;;12.52;100.00
51452;BME280;37521;52.020;-1.740;2023-07-29T04:56:05;98753.19;;;12.53;100.00
51452;BME280;37521;52.020;-1.740;2023-07-29T04:58:33;98765.72;;;12.51;100.00
51452;BME280;37521;52.020;-1.740;2023-07-29T05:01:04;98763.16;;;12.50;100.00
51452;BME280;37521;52.020;-1.740;2023-07-29T05:03:32;98761.59;;;12.47;100.00
51452;BME280;37521;52.020;-1.740;2023-07-29T05:06:01;98761.72;;;12.46;100.00
51452;BME280;37521;52.020;-1.740;2023-07-29T05:08:31;98770.69;;;12.43;100.00
51452;BME280;37521;52.020;-1.740;2023-07-29T05:11:01;98767.22;;;12.43;100.00
51452;BME280;37521;52.020;-1.740;2023-07-29T05:13:31;98772.75;;;12.40;100.00
51452;BME280;37521;52.020;-1.740;2023-07-29T05:16:01;98767.66;;;12.37;100.00
51452;BME280;37521;52.020;-1.740;2023-07-29T05:18:30;98772.13;;;12.36;100.00
51452;BME280;37521;52.020;-1.740;2023-07-29T05:20:59;98772.34;;;12.33;100.00
51452;BME280;37521;52.020;-1.740;2023-07-29T05:23:28;98764.41;;;12.33;100.00
51452;BME280;37521;52.020;-1.740;2023-07-29T05:25:57;98771.63;;;12.31;100.00
51452;BME280;37521;52.020;-1.740;2023-07-29T05:28:25;98769.19;;;12.28;100.00
51452;BME280;37521;52.020;-1.740;2023-07-29T05:30:56;98765.81;;;12.26;100.00
51452;BME280;37521;52.020;-1.740;2023-07-29T05:33:28;98758.41;;;12.31;100.00
51452;BME280;37521;52.020;-1.740;2023-07-29T05:35:57;98760.47;;;12.39;100.00
51452;BME280;37521;52.020;-1.740;2023-07-29T05:38:26;98757.97;;;12.48;100.00
51452;BME280;37521;52.020;-1.740;2023-07-29T05:40:54;98751.28;;;12.55;100.00
51452;BME280;37521;52.020;-1.740;2023-07-29T05:43:24;98760.91;;;12.57;100.00
51452;BME280;37521;52.020;-1.740;2023-07-29T05:45:55;98771.50;;;12.57;100.00
51452;BME280;37521;52.020;-1.740;2023-07-29T05:48:24;98761.66;;;12.59;100.00
51452;BME280;37521;52.020;-1.740;2023-07-29T05:50:52;98764.19;;;12.60;100.00
51452;BME280;37521;52.020;-1.740;2023-07-29T05:53:22;98770.06;;;12.64;100.00
51452;BME280;37521;52.020;-1.740;2023-07-29T05:55:51;98773.84;;;12.72;100.00
51452;BME280;37521;52.020;-1.740;2023-07-29T05:58:19;98771.22;;;12.72;100.00
51452;BME280;37521;52.020;-1.740;2023-07-29T06:00:48;98776.84;;;12.68;100.00
51452;BME280;37521;52.020;-1.740;2023-07-29T06:03:20;98771.16;;;12.61;100.00
51452;BME280;37521;52.020;-1.740;2023-07-29T06:05:50;98767.91;;;12.58;100.00
51452;BME280;37521;52.020;-1.740;2023-07-29T06:08:21;98773.19;;;12.58;100.00
51452;BME280;37521;52.020;-1.740;2023-07-29T06:10:49;98779.44;;;12.57;100.00
51452;BME280;37521;52.020;-1.740;2023-07-29T06:13:19;98784.72;;;12.57;100.00
51452;BME280;37521;52.020;-1.740;2023-07-29T06:15:48;98772.25;;;12.59;100.00
51452;BME280;37521;52.020;-1.740;2023-07-29T06:18:19;98784.72;;;12.57;100.00
51452;BME280;37521;52.020;-1.740;2023-07-29T06:20:49;98774.38;;;12.53;100.00
51452;BME280;37521;52.020;-1.740;2023-07-29T06:23:18;98780.28;;;12.57;100.00
51452;BME280;37521;52.020;-1.740;2023-07-29T06:25:47;98781.16;;;12.58;100.00
51452;BME280;37521;52.020;-1.740;2023-07-29T06:28:15;98782.47;;;12.63;100.00
51452;BME280;37521;52.020;-1.740;2023-07-29T06:30:44;98782.13;;;12.68;100.00
51452;BME280;37521;52.020;-1.740;2023-07-29T06:33:12;98771.59;;;12.79;100.00
51452;BME280;37521;52.020;-1.740;2023-07-29T06:35:43;98766.56;;;12.87;100.00
51452;BME280;37521;52.020;-1.740;2023-07-29T06:38:12;98770.44;;;12.94;100.00
51452;BME280;37521;52.020;-1.740;2023-07-29T06:40:41;98769.13;;;13.00;100.00
51452;BME280;37521;52.020;-1.740;2023-07-29T06:43:10;98773.00;;;13.07;100.00
51452;BME280;37521;52.020;-1.740;2023-07-29T06:45:39;98764.25;;;13.18;100.00
51452;BME280;37521;52.020;-1.740;2023-07-29T06:48:08;98762.72;;;13.26;100.00
51452;BME280;37521;52.020;-1.740;2023-07-29T06:50:37;98762.47;;;13.29;100.00
51452;BME280;37521;52.020;-1.740;2023-07-29T06:53:06;98768.38;;;13.33;100.00
51452;BME280;37521;52.020;-1.740;2023-07-29T06:55:35;98780.66;;;13.34;100.00
51452;BME280;37521;52.020;-1.740;2023-07-29T06:58:03;98782.59;;;13.32;100.00
51452;BME280;37521;52.020;-1.740;2023-07-29T07:00:32;98779.19;;;13.30;100.00
51452;BME280;37521;52.020;-1.740;2023-07-29T07:03:02;98777.06;;;13.35;100.00
51452;BME280;37521;52.020;-1.740;2023-07-29T07:05:30;98786.00;;;13.45;100.00
51452;BME280;37521;52.020;-1.740;2023-07-29T07:08:00;98778.50;;;13.50;100.00
51452;BME280;37521;52.020;-1.740;2023-07-29T07:10:30;98782.88;;;13.51;100.00
51452;BME280;37521;52.020;-1.740;2023-07-29T07:13:00;98796.34;;;13.48;100.00
51452;BME280;37521;52.020;-1.740;2023-07-29T07:15:30;98790.34;;;13.46;100.00
51452;BME280;37521;52.020;-1.740;2023-07-29T07:17:59;98788.03;;;13.53;100.00
51452;BME280;37521;52.020;-1.740;2023-07-29T07:20:29;98790.22;;;13.59;100.00
51452;BME280;37521;52.020;-1.740;2023-07-29T07:22:57;98789.75;;;13.65;100.00
51452;BME280;37521;52.020;-1.740;2023-07-29T07:25:26;98793.22;;;13.77;100.00
51452;BME280;37521;52.020;-1.740;2023-07-29T07:27:56;98792.25;;;13.89;100.00
51452;BME280;37521;52.020;-1.740;2023-07-29T07:30:24;98794.56;;;13.94;100.00
51452;BME280;37521;52.020;-1.740;2023-07-29T07:32:53;98794.56;;;13.94;100.00
51452;BME280;37521;52.020;-1.740;2023-07-29T07:35:21;98799.25;;;14.01;100.00
51452;BME280;37521;52.020;-1.740;2023-07-29T07:37:50;98797.16;;;14.16;100.00
51452;BME280;37521;52.020;-1.740;2023-07-29T07:40:18;98799.94;;;14.26;100.00
51452;BME280;37521;52.020;-1.740;2023-07-29T07:42:48;98792.44;;;14.31;100.00
51452;BME280;37521;52.020;-1.740;2023-07-29T07:45:19;98795.56;;;14.36;100.00
51452;BME280;37521;52.020;-1.740;2023-07-29T07:47:48;98794.84;;;14.34;100.00
51452;BME280;37521;52.020;-1.740;2023-07-29T07:50:16;98801.38;;;14.30;100.00
51452;BME280;37521;52.020;-1.740;2023-07-29T07:52:45;98805.13;;;14.27;100.00
51452;BME280;37521;52.020;-1.740;2023-07-29T07:55:14;98796.91;;;14.30;100.00
51452;BME280;37521;52.020;-1.740;2023-07-29T07:57:44;98794.84;;;14.45;100.00
51452;BME280;37521;52.020;-1.740;2023-07-29T08:00:14;98792.25;;;14.66;100.00
51452;BME280;37521;52.020;-1.740;2023-07-29T08:02:45;98782.88;;;14.83;100.00
51452;BME280;37521;52.020;-1.740;2023-07-29T08:05:14;98786.00;;;14.88;100.00
51452;BME280;37521;52.020;-1.740;2023-07-29T08:07:42;98796.63;;;14.88;100.00
51452;BME280;37521;52.020;-1.740;2023-07-29T08:10:10;98795.97;;;14.75;100.00
51452;BME280;37521;52.020;-1.740;2023-07-29T08:12:39;98799.16;;;14.57;100.00
51452;BME280;37521;52.020;-1.740;2023-07-29T08:15:08;98792.66;;;14.50;100.00
51452;BME280;37521;52.020;-1.740;2023-07-29T08:17:36;98797.50;;;14.45;100.00
51452;BME280;37521;52.020;-1.740;2023-07-29T08:20:07;98801.22;;;14.42;100.00
51452;BME280;37521;52.020;-1.740;2023-07-29T08:22:37;98801.09;;;14.55;100.00
51452;BME280;37521;52.020;-1.740;2023-07-29T08:25:06;98793.03;;;14.78;100.00
51452;BME280;37521;52.020;-1.740;2023-07-29T08:27:35;98786.94;;;14.98;100.00
51452;BME280;37521;52.020;-1.740;2023-07-29T08:30:05;98780.31;;;15.13;100.00
51452;BME280;37521;52.020;-1.740;2023-07-29T08:32:33;98785.75;;;15.33;100.00
51452;BME280;37521;52.020;-1.740;2023-07-29T08:35:02;98783.28;;;15.41;100.00
51452;BME280;37521;52.020;-1.740;2023-07-29T08:37:32;98780.09;;;15.47;100.00
51452;BME280;37521;52.020;-1.740;2023-07-29T08:40:02;98789.31;;;15.43;100.00
51452;BME280;37521;52.020;-1.740;2023-07-29T08:42:32;98783.22;;;15.31;100.00
51452;BME280;37521;52.020;-1.740;2023-07-29T08:45:06;98783.44;;;15.18;100.00
51452;BME280;37521;52.020;-1.740;2023-07-29T08:47:36;98785.97;;;14.99;100.00
51452;BME280;37521;52.020;-1.740;2023-07-29T08:50:06;98780.34;;;14.81;100.00
51452;BME280;37521;52.020;-1.740;2023-07-29T08:52:37;98779.03;;;14.76;100.00
51452;BME280;37521;52.020;-1.740;2023-07-29T08:55:08;98784.63;;;14.73;100.00
51452;BME280;37521;52.020;-1.740;2023-07-29T08:57:37;98776.38;;;14.76;100.00
51452;BME280;37521;52.020;-1.740;2023-07-29T09:00:08;98783.28;;;14.78;100.00
51452;BME280;37521;52.020;-1.740;2023-07-29T09:02:37;98774.66;;;14.86;100.00
51452;BME280;37521;52.020;-1.740;2023-07-29T09:05:07;98780.97;;;15.06;100.00
51452;BME280;37521;52.020;-1.740;2023-07-29T09:07:38;98772.72;;;15.30;100.00
51452;BME280;37521;52.020;-1.740;2023-07-29T09:10:09;98780.97;;;15.57;100.00
51452;BME280;37521;52.020;-1.740;2023-07-29T09:12:39;98771.06;;;15.59;100.00
51452;BME280;37521;52.020;-1.740;2023-07-29T09:15:10;98781.94;;;15.56;100.00
51452;BME280;37521;52.020;-1.740;2023-07-29T09:17:40;98794.06;;;15.39;100.00
51452;BME280;37521;52.020;-1.740;2023-07-29T09:20:11;98815.78;;;15.23;100.00
51452;BME280;37521;52.020;-1.740;2023-07-29T09:22:43;98826.84;;;14.87;100.00
51452;BME280;37521;52.020;-1.740;2023-07-29T09:25:12;98812.94;;;14.40;100.00
51452;BME280;37521;52.020;-1.740;2023-07-29T09:27:43;98809.97;;;14.11;100.00
51452;BME280;37521;52.020;-1.740;2023-07-29T09:30:15;98806.00;;;13.94;100.00
51452;BME280;37521;52.020;-1.740;2023-07-29T09:32:45;98810.59;;;13.92;100.00
51452;BME280;37521;52.020;-1.740;2023-07-29T09:35:15;98813.13;;;13.94;100.00
51452;BME280;37521;52.020;-1.740;2023-07-29T09:37:45;98818.78;;;14.11;100.00
51452;BME280;37521;52.020;-1.740;2023-07-29T09:40:15;98807.66;;;14.29;100.00
51452;BME280;37521;52.020;-1.740;2023-07-29T09:42:50;98817.03;;;14.55;100.00
51452;BME280;37521;52.020;-1.740;2023-07-29T09:45:20;98817.00;;;14.66;100.00
51452;BME280;37521;52.020;-1.740;2023-07-29T09:47:51;98806.47;;;14.76;100.00
51452;BME280;37521;52.020;-1.740;2023-07-29T09:50:23;98808.88;;;14.79;100.00
51452;BME280;37521;52.020;-1.740;2023-07-29T09:52:54;98824.91;;;14.78;100.00
51452;BME280;37521;52.020;-1.740;2023-07-29T09:55:25;98813.59;;;14.76;100.00
51452;BME280;37521;52.020;-1.740;2023-07-29T09:57:57;98811.97;;;14.84;100.00
51452;BME280;37521;52.020;-1.740;2023-07-29T10:00:29;98822.19;;;15.00;100.00
51452;BME280;37521;52.020;-1.740;2023-07-29T10:02:58;98820.19;;;14.92;100.00
51452;BME280;37521;52.020;-1.740;2023-07-29T10:05:28;98827.19;;;14.93;100.00
51452;BME280;37521;52.020;-1.740;2023-07-29T10:07:59;98820.88;;;14.94;100.00
51452;BME280;37521;52.020;-1.740;2023-07-29T10:10:28;98832.44;;;15.05;100.00
51452;BME280;37521;52.020;-1.740;2023-07-29T10:12:58;98829.59;;;15.17;100.00
51452;BME280;37521;52.020;-1.740;2023-07-29T10:15:29;98818.38;;;15.35;100.00
51452;BME280;37521;52.020;-1.740;2023-07-29T10:18:01;98822.13;;;15.53;100.00
51452;BME280;37521;52.020;-1.740;2023-07-29T10:20:32;98828.03;;;15.77;100.00
51452;BME280;37521;52.020;-1.740;2023-07-29T10:23:07;98827.94;;;15.89;100.00
51452;BME280;37521;52.020;-1.740;2023-07-29T10:25:39;98827.94;;;15.89;100.00
51452;BME280;37521;52.020;-1.740;2023-07-29T10:28:15;98835.13;;;15.98;100.00
51452;BME280;37521;52.020;-1.740;2023-07-29T10:30:47;98828.09;;;16.27;100.00
51452;BME280;37521;52.020;-1.740;2023-07-29T10:33:16;98828.28;;;16.55;100.00
51452;BME280;37521;52.020;-1.740;2023-07-29T10:35:46;98817.13;;;16.80;100.00
51452;BME280;37521;52.020;-1.740;2023-07-29T10:38:17;98818.69;;;16.93;100.00
51452;BME280;37521;52.020;-1.740;2023-07-29T10:40:50;98822.31;;;16.92;100.00
51452;BME280;37521;52.020;-1.740;2023-07-29T10:43:24;98811.25;;;16.86;100.00
51452;BME280;37521;52.020;-1.740;2023-07-29T10:45:55;98821.88;;;16.67;100.00
51452;BME280;37521;52.020;-1.740;2023-07-29T10:48:43;98816.22;;;16.51;100.00
51452;BME280;37521;52.020;-1.740;2023-07-29T10:51:25;98821.47;;;16.81;100.00
51452;BME280;37521;52.020;-1.740;2023-07-29T10:53:59;98821.47;;;17.10;100.00
51452;BME280;37521;52.020;-1.740;2023-07-29T10:56:31;98831.44;;;17.18;100.00
51452;BME280;37521;52.020;-1.740;2023-07-29T10:59:31;98818.53;;;16.94;100.00
51452;BME280;37521;52.020;-1.740;2023-07-29T11:02:01;98825.84;;;17.02;100.00
51452;BME280;37521;52.020;-1.740;2023-07-29T11:04:30;98817.91;;;17.49;100.00
51452;BME280;37521;52.020;-1.740;2023-07-29T11:07:20;98830.97;;;17.52;100.00
51452;BME280;37521;52.020;-1.740;2023-07-29T11:10:00;98827.94;;;17.27;100.00
51452;BME280;37521;52.020;-1.740;2023-07-29T11:12:40;98843.25;;;17.06;100.00
51452;BME280;37521;52.020;-1.740;2023-07-29T11:15:18;98853.03;;;16.76;100.00
51452;BME280;37521;52.020;-1.740;2023-07-29T11:17:48;98850.44;;;16.46;100.00
51452;BME280;37521;52.020;-1.740;2023-07-29T11:20:18;98853.47;;;16.31;100.00
51452;BME280;37521;52.020;-1.740;2023-07-29T11:22:47;98856.25;;;16.30;100.00
51452;BME280;37521;52.020;-1.740;2023-07-29T11:25:18;98848.41;;;16.28;100.00
51452;BME280;37521;52.020;-1.740;2023-07-29T11:27:47;98845.38;;;16.43;100.00
51452;BME280;37521;52.020;-1.740;2023-07-29T11:30:17;98838.25;;;16.53;100.00
51452;BME280;37521;52.020;-1.740;2023-07-29T11:32:46;98833.94;;;16.71;100.00
51452;BME280;37521;52.020;-1.740;2023-07-29T11:35:16;98831.72;;;17.15;100.00
51452;BME280;37521;52.020;-1.740;2023-07-29T11:37:48;98837.88;;;17.25;100.00
51452;BME280;37521;52.020;-1.740;2023-07-29T11:40:18;98823.84;;;17.04;100.00
51452;BME280;37521;52.020;-1.740;2023-07-29T11:42:48;98827.25;;;17.06;100.00
51452;BME280;37521;52.020;-1.740;2023-07-29T11:45:18;98836.06;;;17.16;100.00
51452;BME280;37521;52.020;-1.740;2023-07-29T11:47:47;98833.50;;;17.43;100.00
51452;BME280;37521;52.020;-1.740;2023-07-29T11:50:16;98828.59;;;17.49;100.00
51452;BME280;37521;52.020;-1.740;2023-07-29T11:52:46;98837.63;;;17.28;100.00
51452;BME280;37521;52.020;-1.740;2023-07-29T11:55:15;98839.31;;;17.10;100.00
51452;BME280;37521;52.020;-1.740;2023-07-29T11:57:51;98845.75;;;16.98;100.00
51452;BME280;37521;52.020;-1.740;2023-07-29T12:00:20;98842.94;;;16.80;100.00
51452;BME280;37521;52.020;-1.740;2023-07-29T12:02:50;98850.19;;;16.68;100.00
51452;BME280;37521;52.020;-1.740;2023-07-29T12:05:21;98843.50;;;16.74;100.00
51452;BME280;37521;52.020;-1.740;2023-07-29T12:07:50;98856.16;;;17.01;100.00
51452;BME280;37521;52.020;-1.740;2023-07-29T12:10:19;98850.94;;;16.89;100.00
51452;BME280;37521;52.020;-1.740;2023-07-29T12:12:51;98856.69;;;16.75;100.00
51452;BME280;37521;52.020;-1.740;2023-07-29T12:15:24;98856.66;;;16.66;100.00
51452;BME280;37521;52.020;-1.740;2023-07-29T12:17:53;98852.78;;;16.79;100.00
51452;BME280;37521;52.020;-1.740;2023-07-29T12:20:26;98852.31;;;17.52;100.00
51452;BME280;37521;52.020;-1.740;2023-07-29T12:22:55;98834.28;;;18.20;100.00
51452;BME280;37521;52.020;-1.740;2023-07-29T12:25:26;98835.94;;;18.76;100.00
51452;BME280;37521;52.020;-1.740;2023-07-29T12:27:56;98833.97;;;19.14;100.00
51452;BME280;37521;52.020;-1.740;2023-07-29T12:30:25;98825.78;;;19.33;98.51
51452;BME280;37521;52.020;-1.740;2023-07-29T12:32:53;98829.97;;;19.36;89.23
51452;BME280;37521;52.020;-1.740;2023-07-29T12:35:22;98821.81;;;19.45;89.54
51452;BME280;37521;52.020;-1.740;2023-07-29T12:38:00;98812.31;;;19.69;93.41
51452;BME280;37521;52.020;-1.740;2023-07-29T12:40:29;98823.25;;;20.09;89.82
51452;BME280;37521;52.020;-1.740;2023-07-29T12:42:59;98824.94;;;20.10;84.48
51452;BME280;37521;52.020;-1.740;2023-07-29T12:45:35;98828.69;;;20.26;84.22
51452;BME280;37521;52.020;-1.740;2023-07-29T12:48:07;98831.44;;;20.42;83.84
51452;BME280;37521;52.020;-1.740;2023-07-29T12:50:36;98844.47;;;20.37;80.05
51452;BME280;37521;52.020;-1.740;2023-07-29T12:53:06;98834.72;;;20.28;69.77
51452;BME280;37521;52.020;-1.740;2023-07-29T12:55:36;98829.00;;;19.89;68.96